Time;durP1;ratioP1;P1;durP2;ratioP2;P2;SDS_P1;SDS_P2;PMS_P1;PMS_P2;Temp;Humidity;BMP_temperature;BMP_pressure;BME280_temperature;BME280_humidity;BME280_pressure;Samples;Min_cycle;Max_cycle;Signal;HPM_P1;HPM_P2
2022/01/23 00:02:05;;;;;;;20.92;10.95;;;3.90;99.90;;;;;;1900440;75;21488;-76
2022/01/23 00:04:21;;;;;;;20.92;11.75;;;4.00;99.90;;;;;;1893731;75;21153;-74
2022/01/23 00:06:48;;;;;;;22.13;11.55;;;4.00;99.90;;;;;;1901515;75;21071;-76
2022/01/23 00:09:18;;;;;;;18.70;12.10;;;3.90;99.90;;;;;;1905256;75;21052;-76
2022/01/23 00:11:52;;;;;;;19.75;12.15;;;3.90;99.90;;;;;;1903561;75;21495;-76
2022/01/23 00:17:17;;;;;;;17.00;11.45;;;3.70;99.90;;;;;;1886345;74;21071;-74
2022/01/23 00:19:45;;;;;;;18.32;11.25;;;3.60;99.90;;;;;;1897075;74;21063;-77
2022/01/23 00:22:13;;;;;;;15.53;11.97;;;3.70;99.90;;;;;;1883700;74;21477;-76
2022/01/23 00:30:26;;;;;;;18.67;11.43;;;3.70;99.90;;;;;;1893270;74;21095;-73
2022/01/23 00:32:49;;;;;;;15.38;10.63;;;3.80;99.90;;;;;;1890830;75;21193;-75
2022/01/23 00:35:17;;;;;;;16.35;11.88;;;3.80;99.90;;;;;;1886050;74;21066;-75
2022/01/23 00:37:44;;;;;;;16.05;10.82;;;3.70;99.90;;;;;;1901136;75;21145;-74
2022/01/23 00:40:12;;;;;;;15.78;10.63;;;3.70;99.90;;;;;;1907443;74;21094;-75
2022/01/23 00:42:39;;;;;;;19.45;12.20;;;3.80;99.90;;;;;;1904174;75;21154;-76
2022/01/23 00:47:44;;;;;;;18.15;11.25;;;3.80;99.90;;;;;;1891152;75;21100;-77
2022/01/23 00:50:11;;;;;;;23.70;12.58;;;3.80;99.90;;;;;;1903523;74;21164;-75
2022/01/23 00:52:39;;;;;;;25.12;12.25;;;3.80;99.90;;;;;;1902305;74;21063;-75
2022/01/23 00:55:06;;;;;;;18.27;12.47;;;3.80;99.90;;;;;;1898116;75;21039;-76
2022/01/23 00:57:33;;;;;;;19.95;11.15;;;3.80;99.90;;;;;;1894696;75;21450;-76
2022/01/23 01:00:07;;;;;;;15.70;10.88;;;3.80;99.90;;;;;;1890556;75;21062;-75
2022/01/23 01:02:34;;;;;;;12.95;10.98;;;3.80;99.90;;;;;;1897414;74;21068;-76
2022/01/23 01:05:02;;;;;;;16.25;11.15;;;3.80;99.90;;;;;;1878978;75;21167;-75
2022/01/23 01:07:29;;;;;;;15.32;11.20;;;3.80;99.90;;;;;;1907703;74;21067;-75
2022/01/23 01:10:01;;;;;;;14.13;10.75;;;3.80;99.90;;;;;;1892320;75;21097;-76
2022/01/23 01:12:34;;;;;;;19.52;11.80;;;3.70;99.90;;;;;;1901501;75;21401;-74
2022/01/23 01:15:23;;;;;;;17.02;11.70;;;3.70;99.90;;;;;;1885700;75;21251;-76
2022/01/23 01:17:40;;;;;;;22.62;10.80;;;3.80;99.90;;;;;;1881416;75;21181;-76
2022/01/23 01:33:55;;;;;;;13.95;10.70;;;3.70;99.90;;;;;;1789897;78;21137;-76
2022/01/23 01:36:24;;;;;;;15.68;10.45;;;3.70;99.90;;;;;;1796182;79;21452;-76
2022/01/23 01:38:48;;;;;;;16.55;11.50;;;3.60;99.90;;;;;;1830610;75;21145;-76
2022/01/23 01:41:15;;;;;;;21.20;11.53;;;3.60;99.90;;;;;;1888367;75;21040;-75
2022/01/23 01:43:43;;;;;;;15.18;10.78;;;3.60;99.90;;;;;;1891027;75;21459;-75
2022/01/23 01:46:10;;;;;;;16.60;11.15;;;3.70;99.90;;;;;;1887348;75;21141;-75
2022/01/23 01:48:38;;;;;;;14.47;11.65;;;3.70;99.90;;;;;;1899080;75;21525;-73
2022/01/23 01:51:11;;;;;;;17.00;11.48;;;3.70;99.90;;;;;;1881508;75;21145;-75
2022/01/23 01:53:35;;;;;;;17.75;11.68;;;3.70;99.90;;;;;;1898456;75;21429;-75
2022/01/23 01:56:04;;;;;;;18.62;11.38;;;3.70;99.90;;;;;;1899411;75;21071;-76
2022/01/23 02:09:34;;;;;;;20.82;11.75;;;3.70;99.90;;;;;;1889739;74;21070;-75
2022/01/23 02:12:18;;;;;;;16.65;11.68;;;3.70;99.90;;;;;;1889355;75;21162;-77
2022/01/23 02:17:20;;;;;;;17.67;10.93;;;3.70;99.90;;;;;;1904970;75;21644;-76
2022/01/23 02:55:35;;;;;;;18.27;13.50;;;3.60;99.90;;;;;;1908286;74;21460;-76
2022/01/23 02:57:59;;;;;;;18.52;13.13;;;3.50;99.90;;;;;;1907007;75;21107;-76
2022/01/23 03:00:31;;;;;;;16.95;12.85;;;3.40;99.90;;;;;;1908189;74;21062;-76
2022/01/23 03:03:01;;;;;;;20.72;13.72;;;3.50;99.90;;;;;;1907467;75;21076;-76
2022/01/23 03:08:19;;;;;;;18.40;12.20;;;3.60;99.90;;;;;;1908441;74;21088;-76
2022/01/23 03:10:42;;;;;;;19.62;12.90;;;3.60;99.90;;;;;;1905675;75;21507;-75
2022/01/23 03:24:16;;;;;;;22.27;16.23;;;3.50;99.90;;;;;;1907876;75;21051;-77
2022/01/23 03:29:22;;;;;;;25.60;16.73;;;3.50;99.90;;;;;;1852692;75;21129;-76
2022/01/23 03:34:25;;;;;;;20.80;14.75;;;3.60;99.90;;;;;;1907876;75;21190;-75
2022/01/23 03:36:53;;;;;;;22.55;14.30;;;3.60;99.90;;;;;;1908051;74;21177;-76
2022/01/23 03:39:20;;;;;;;23.90;14.33;;;3.70;99.90;;;;;;1908535;74;21128;-75
2022/01/23 03:41:48;;;;;;;20.00;14.15;;;3.70;99.90;;;;;;1908057;74;21020;-75
2022/01/23 03:44:16;;;;;;;24.15;14.25;;;3.60;99.90;;;;;;1908441;74;21113;-75
2022/01/23 03:49:32;;;;;;;24.65;14.63;;;3.60;99.90;;;;;;1907312;75;21100;-77
2022/01/23 03:52:02;;;;;;;21.37;14.33;;;3.60;99.90;;;;;;1907544;75;21440;-76
2022/01/23 03:54:31;;;;;;;24.15;15.25;;;3.70;99.90;;;;;;1907803;75;21042;-76
2022/01/23 03:57:00;;;;;;;24.47;15.78;;;3.70;99.90;;;;;;1908746;74;21035;-75
2022/01/23 03:59:27;;;;;;;22.75;15.15;;;3.70;99.90;;;;;;1908127;74;21109;-75
2022/01/23 04:01:55;;;;;;;22.60;15.53;;;3.70;99.90;;;;;;1908013;74;21441;-76
2022/01/23 04:04:38;;;;;;;25.92;16.05;;;3.60;99.90;;;;;;1908051;74;21109;-75
2022/01/23 04:07:20;;;;;;;26.20;15.38;;;3.60;99.90;;;;;;1908066;75;21059;-76
2022/01/23 04:09:47;;;;;;;26.00;15.50;;;3.60;99.90;;;;;;1908607;74;21092;-76
2022/01/23 04:12:37;;;;;;;23.07;15.50;;;3.60;99.90;;;;;;1908009;74;21091;-75
2022/01/23 04:15:13;;;;;;;26.62;15.53;;;3.70;99.90;;;;;;1905650;75;21209;-76
2022/01/23 04:18:18;;;;;;;25.32;16.70;;;3.60;99.90;;;;;;1900733;75;21571;-76
2022/01/23 04:20:28;;;;;;;26.33;16.87;;;3.60;99.90;;;;;;1904513;75;21234;-76
2022/01/23 04:33:56;;;;;;;23.98;16.70;;;3.40;99.90;;;;;;1902235;74;21141;-76
2022/01/23 05:01:15;;;;;;;26.57;17.30;;;3.50;99.90;;;;;;1908147;74;21195;-74
2022/01/23 05:06:27;;;;;;;25.55;17.17;;;3.50;99.90;;;;;;1907926;74;21207;-75
2022/01/23 05:08:45;;;;;;;26.80;17.85;;;3.50;99.90;;;;;;1904637;75;21127;-76
2022/01/23 05:11:13;;;;;;;29.12;18.98;;;3.50;99.90;;;;;;1908210;74;21435;-74
2022/01/23 05:13:41;;;;;;;29.57;19.82;;;3.40;99.90;;;;;;1907841;74;21519;-73
2022/01/23 05:16:09;;;;;;;39.80;20.08;;;3.40;99.90;;;;;;1908049;74;21051;-76
2022/01/23 05:18:37;;;;;;;29.48;19.15;;;3.30;99.90;;;;;;1885847;75;21144;-76
2022/01/23 05:23:50;;;;;;;28.47;18.73;;;3.30;99.90;;;;;;1907883;74;21152;-75
2022/01/23 05:26:17;;;;;;;29.37;18.87;;;3.40;99.90;;;;;;1908069;74;21043;-73
2022/01/23 05:28:45;;;;;;;31.23;20.23;;;3.40;99.90;;;;;;1908123;74;21134;-74
2022/01/23 05:31:12;;;;;;;31.93;19.52;;;3.30;99.90;;;;;;1908129;74;21105;-74
2022/01/23 05:33:39;;;;;;;28.40;18.10;;;3.30;99.90;;;;;;1907764;75;21035;-76
2022/01/23 05:36:08;;;;;;;29.92;20.08;;;3.40;99.90;;;;;;1907928;74;21059;-76
2022/01/23 05:38:36;;;;;;;28.65;18.55;;;3.40;99.90;;;;;;1907821;74;21067;-78
2022/01/23 05:41:03;;;;;;;26.75;18.65;;;3.50;99.90;;;;;;1908009;74;21024;-78
2022/01/23 05:43:30;;;;;;;28.32;18.20;;;3.40;99.90;;;;;;1907959;74;21427;-78
2022/01/23 05:45:59;;;;;;;30.88;18.95;;;3.40;99.90;;;;;;1908105;74;21109;-79
2022/01/23 05:48:26;;;;;;;29.72;18.70;;;3.40;99.90;;;;;;1908338;74;21016;-77
2022/01/23 05:50:55;;;;;;;28.40;18.30;;;3.50;99.90;;;;;;1908182;74;21083;-78
2022/01/23 05:53:22;;;;;;;29.92;19.10;;;3.50;99.90;;;;;;1908237;74;21024;-78
2022/01/23 05:55:50;;;;;;;31.05;18.98;;;3.50;99.90;;;;;;1908218;74;21112;-78
2022/01/23 05:58:17;;;;;;;32.23;18.42;;;3.50;99.90;;;;;;1908289;74;21027;-78
2022/01/23 06:00:44;;;;;;;24.85;18.30;;;3.40;99.90;;;;;;1908260;74;21102;-78
2022/01/23 06:03:13;;;;;;;30.17;18.70;;;3.30;99.90;;;;;;1908124;74;21120;-78
2022/01/23 06:05:40;;;;;;;32.80;18.85;;;3.50;99.90;;;;;;1907870;74;21171;-77
2022/01/23 06:08:08;;;;;;;31.35;18.17;;;3.50;99.90;;;;;;1908076;74;21016;-78
2022/01/23 06:10:53;;;;;;;27.70;17.98;;;3.60;99.90;;;;;;1908174;74;21109;-76
2022/01/23 06:13:04;;;;;;;28.02;19.20;;;3.50;99.90;;;;;;1904932;75;21657;-79
2022/01/23 06:15:31;;;;;;;38.02;19.87;;;3.50;99.90;;;;;;1908200;74;21035;-77
2022/01/23 06:17:59;;;;;;;32.45;20.88;;;3.40;99.90;;;;;;1908380;74;21112;-78
2022/01/23 06:20:26;;;;;;;33.88;20.50;;;3.40;99.90;;;;;;1909522;74;21047;-78
2022/01/23 06:22:53;;;;;;;34.10;19.12;;;3.40;99.90;;;;;;1909454;75;21035;-78
2022/01/23 06:25:21;;;;;;;36.00;19.92;;;3.40;99.90;;;;;;1909593;74;21113;-77
2022/01/23 06:27:49;;;;;;;29.57;18.98;;;3.40;99.90;;;;;;1909801;74;21039;-78
2022/01/23 06:30:17;;;;;;;29.23;19.25;;;3.40;99.90;;;;;;1909941;74;21027;-79
2022/01/23 06:32:44;;;;;;;28.98;18.27;;;3.50;99.90;;;;;;1910811;74;21080;-76
2022/01/23 06:35:12;;;;;;;31.55;19.25;;;3.60;99.90;;;;;;1911178;74;21078;-76
2022/01/23 06:37:41;;;;;;;30.10;19.60;;;3.60;99.90;;;;;;1910500;74;21106;-77
2022/01/23 06:40:09;;;;;;;26.60;17.92;;;3.60;99.90;;;;;;1910323;74;21111;-77
2022/01/23 06:42:36;;;;;;;30.82;17.95;;;3.60;99.90;;;;;;1910367;75;21000;-77
2022/01/23 06:45:04;;;;;;;31.77;19.12;;;3.60;99.90;;;;;;1909466;74;21319;-76
2022/01/23 06:47:31;;;;;;;33.48;19.95;;;3.60;99.90;;;;;;1908672;74;21097;-76
2022/01/23 06:50:00;;;;;;;26.50;18.17;;;3.70;99.90;;;;;;1908129;75;21145;-77
2022/01/23 06:52:27;;;;;;;33.42;19.37;;;3.60;99.90;;;;;;1908211;75;21051;-76
2022/01/23 06:54:55;;;;;;;28.98;19.82;;;3.50;99.90;;;;;;1908279;74;21082;-76
2022/01/23 06:57:22;;;;;;;40.85;20.43;;;3.50;99.90;;;;;;1908324;74;21043;-78
2022/01/23 06:59:49;;;;;;;32.73;18.48;;;3.50;99.90;;;;;;1908167;74;21062;-76
2022/01/23 07:02:16;;;;;;;31.85;19.70;;;3.60;99.90;;;;;;1908262;74;21044;-76
2022/01/23 07:04:44;;;;;;;31.70;18.73;;;3.60;99.90;;;;;;1904942;74;21546;-77
2022/01/23 07:07:11;;;;;;;31.75;19.45;;;3.50;99.90;;;;;;1892269;75;21054;-77
2022/01/23 07:09:38;;;;;;;35.88;19.67;;;3.50;99.90;;;;;;1885728;75;21452;-77
2022/01/23 07:12:07;;;;;;;36.40;19.10;;;3.50;99.90;;;;;;1896006;74;21325;-77
2022/01/23 07:14:34;;;;;;;28.42;18.02;;;3.50;99.90;;;;;;1901940;74;21866;-78
2022/01/23 07:17:01;;;;;;;30.15;18.75;;;3.50;99.90;;;;;;1907476;75;21067;-78
2022/01/23 07:19:29;;;;;;;31.97;19.32;;;3.50;99.90;;;;;;1891602;75;21469;-78
2022/01/23 07:21:56;;;;;;;34.05;18.50;;;3.60;99.90;;;;;;1890218;75;21043;-78
2022/01/23 07:24:24;;;;;;;29.95;17.90;;;3.60;99.90;;;;;;1906021;75;21138;-78
2022/01/23 07:26:51;;;;;;;28.73;17.85;;;3.70;99.90;;;;;;1901558;74;21071;-77
2022/01/23 07:29:19;;;;;;;29.37;17.60;;;3.80;99.90;;;;;;1906678;74;21083;-78
2022/01/23 07:31:58;;;;;;;30.43;20.60;;;3.70;99.90;;;;;;1902104;74;21214;-78
2022/01/23 07:34:24;;;;;;;34.53;20.62;;;3.60;99.90;;;;;;1901780;75;21453;-78
2022/01/23 07:36:52;;;;;;;28.83;18.85;;;3.50;99.90;;;;;;1906034;75;21521;-79
2022/01/23 07:39:19;;;;;;;28.77;19.20;;;3.60;99.90;;;;;;1896306;74;21133;-78
2022/01/23 07:41:46;;;;;;;29.63;18.90;;;3.60;99.90;;;;;;1904148;74;21491;-79
2022/01/23 07:44:13;;;;;;;30.57;20.00;;;3.60;99.90;;;;;;1885053;75;21113;-76
2022/01/23 07:46:41;;;;;;;33.50;20.02;;;3.70;99.90;;;;;;1900785;74;21047;-76
2022/01/23 07:49:08;;;;;;;30.35;19.15;;;3.70;99.90;;;;;;1891539;75;21525;-77
2022/01/23 07:51:36;;;;;;;33.15;18.73;;;3.70;99.90;;;;;;1907534;74;21075;-76
2022/01/23 07:54:03;;;;;;;32.80;18.55;;;3.70;99.90;;;;;;1907943;74;21043;-76
2022/01/23 07:56:30;;;;;;;28.02;19.70;;;3.80;99.90;;;;;;1907392;74;21149;-76
2022/01/23 07:58:58;;;;;;;32.00;20.57;;;3.80;99.90;;;;;;1908280;74;21431;-76
2022/01/23 08:01:26;;;;;;;30.90;20.20;;;3.80;99.90;;;;;;1907901;74;21184;-78
2022/01/23 08:03:53;;;;;;;35.08;20.95;;;3.70;99.90;;;;;;1908047;74;21421;-78
2022/01/23 08:06:22;;;;;;;35.70;19.80;;;3.60;99.90;;;;;;1885416;75;21110;-77
2022/01/23 08:08:50;;;;;;;32.23;20.43;;;3.70;99.90;;;;;;1888226;75;21166;-79
2022/01/23 08:11:17;;;;;;;35.30;20.40;;;3.70;99.90;;;;;;1895928;75;21517;-77
2022/01/23 08:13:44;;;;;;;30.12;19.35;;;3.70;99.90;;;;;;1907945;75;21088;-77
2022/01/23 08:16:11;;;;;;;34.13;20.82;;;3.70;99.90;;;;;;1907869;75;21501;-77
2022/01/23 08:18:39;;;;;;;34.73;20.77;;;3.70;99.90;;;;;;1908034;75;21039;-77
2022/01/23 08:21:07;;;;;;;40.25;22.82;;;3.70;99.90;;;;;;1907870;75;21035;-78
2022/01/23 08:23:38;;;;;;;34.48;18.67;;;3.80;99.90;;;;;;1907903;74;21099;-78
2022/01/23 08:26:06;;;;;;;38.20;19.82;;;3.80;99.90;;;;;;1907704;75;21095;-78
2022/01/23 08:28:33;;;;;;;33.88;20.80;;;3.80;99.90;;;;;;1908148;75;21113;-78
2022/01/23 08:31:00;;;;;;;29.80;18.80;;;3.80;99.90;;;;;;1907946;75;21357;-77
2022/01/23 08:33:28;;;;;;;30.48;19.45;;;3.80;99.90;;;;;;1907987;75;21043;-77
2022/01/23 08:35:57;;;;;;;33.53;21.05;;;3.70;99.90;;;;;;1907839;75;21087;-77
2022/01/23 08:38:25;;;;;;;36.38;21.87;;;3.70;99.90;;;;;;1907876;75;21110;-78
2022/01/23 08:43:38;;;;;;;35.05;20.62;;;3.80;99.90;;;;;;1907907;75;21574;-79
2022/01/23 08:46:05;;;;;;;32.73;19.27;;;3.80;99.90;;;;;;1907942;75;21101;-76
2022/01/23 08:48:33;;;;;;;31.40;19.70;;;3.80;99.90;;;;;;1907955;75;21422;-75
2022/01/23 08:51:00;;;;;;;46.18;20.15;;;3.80;99.90;;;;;;1907944;75;21039;-76
2022/01/23 08:53:27;;;;;;;29.65;20.00;;;4.00;99.90;;;;;;1907993;75;21522;-75
2022/01/23 08:55:55;;;;;;;31.80;18.93;;;4.00;99.90;;;;;;1909335;74;21160;-76
2022/01/23 08:58:22;;;;;;;34.85;20.43;;;4.10;99.90;;;;;;1908030;74;21534;-76
2022/01/23 09:00:49;;;;;;;39.13;19.95;;;4.00;99.90;;;;;;1908435;74;21071;-76
2022/01/23 09:03:17;;;;;;;30.10;19.80;;;4.10;99.90;;;;;;1876013;75;21266;-76
2022/01/23 09:05:44;;;;;;;32.08;18.23;;;4.10;99.90;;;;;;1880235;75;21048;-76
2022/01/23 09:08:15;;;;;;;35.48;20.52;;;4.30;99.90;;;;;;1904474;75;21059;-76
2022/01/23 09:10:54;;;;;;;32.28;19.77;;;4.50;99.90;;;;;;1893967;74;21432;-77
2022/01/23 09:13:33;;;;;;;31.17;17.87;;;4.50;99.90;;;;;;1878456;74;21083;-75
2022/01/23 09:15:59;;;;;;;28.30;18.27;;;4.60;99.90;;;;;;1885685;75;21096;-77
2022/01/23 09:18:26;;;;;;;34.58;19.10;;;4.70;99.90;;;;;;1897705;75;21475;-76
2022/01/23 09:20:53;;;;;;;30.60;19.15;;;4.60;99.90;;;;;;1891599;74;21048;-77
2022/01/23 09:23:21;;;;;;;31.52;19.05;;;4.60;99.90;;;;;;1896342;74;21481;-77
2022/01/23 09:25:48;;;;;;;31.15;19.50;;;4.40;99.90;;;;;;1906349;75;21133;-76
2022/01/23 09:28:18;;;;;;;31.52;18.95;;;4.40;99.90;;;;;;1893005;75;21074;-77
2022/01/23 09:30:49;;;;;;;27.87;18.67;;;4.40;99.90;;;;;;1894948;75;21199;-77
2022/01/23 09:33:14;;;;;;;28.92;18.27;;;4.40;99.90;;;;;;1906906;75;21459;-76
2022/01/23 09:35:41;;;;;;;29.15;19.32;;;4.40;99.90;;;;;;1906104;75;21561;-76
2022/01/23 09:38:09;;;;;;;44.93;19.90;;;4.50;99.90;;;;;;1901572;74;21067;-77
2022/01/23 09:40:39;;;;;;;28.35;19.32;;;4.50;99.90;;;;;;1900809;74;21494;-77
2022/01/23 09:43:08;;;;;;;38.88;21.70;;;4.50;99.90;;;;;;1892414;74;21285;-79
2022/01/23 09:45:35;;;;;;;40.35;20.55;;;4.60;99.90;;;;;;1879340;75;21157;-77
2022/01/23 09:48:04;;;;;;;37.80;19.98;;;4.60;99.90;;;;;;1891483;74;21058;-77
2022/01/23 09:50:31;;;;;;;27.13;17.60;;;4.60;99.90;;;;;;1890448;74;21156;-77
2022/01/23 09:53:00;;;;;;;31.20;18.60;;;4.70;99.90;;;;;;1901954;75;21448;-77
2022/01/23 09:55:27;;;;;;;28.95;18.55;;;4.80;99.90;;;;;;1900425;75;21132;-78
2022/01/23 09:57:55;;;;;;;29.72;17.42;;;4.90;99.90;;;;;;1898061;75;21211;-76
2022/01/23 10:00:25;;;;;;;28.90;17.57;;;5.10;99.90;;;;;;1902419;74;21029;-76
2022/01/23 10:02:52;;;;;;;29.80;17.75;;;5.30;99.90;;;;;;1892358;75;21636;-75
2022/01/23 10:05:19;;;;;;;28.17;18.52;;;5.50;99.90;;;;;;1891990;75;21059;-75
2022/01/23 10:07:47;;;;;;;31.27;18.40;;;5.20;99.90;;;;;;1902303;75;21432;-75
2022/01/23 10:10:20;;;;;;;29.23;18.45;;;5.20;99.90;;;;;;1902293;75;21067;-77
2022/01/23 10:12:50;;;;;;;33.30;18.40;;;5.20;99.90;;;;;;1901820;75;21164;-77
2022/01/23 10:15:18;;;;;;;28.10;18.10;;;5.20;99.90;;;;;;1893589;75;21064;-78
2022/01/23 10:17:46;;;;;;;26.48;17.32;;;5.20;99.90;;;;;;1900936;74;21504;-78
2022/01/23 10:20:14;;;;;;;25.90;16.95;;;5.40;99.90;;;;;;1902351;75;21079;-82
2022/01/23 10:22:44;;;;;;;30.52;17.75;;;5.30;99.90;;;;;;1908153;74;21525;-82
2022/01/23 10:25:16;;;;;;;27.35;17.98;;;5.20;99.90;;;;;;1907792;74;21522;-81
2022/01/23 10:28:07;;;;;;;29.40;18.35;;;5.30;99.90;;;;;;1907384;75;21052;-79
2022/01/23 10:30:38;;;;;;;32.25;19.07;;;5.30;99.90;;;;;;1908108;74;21078;-82
2022/01/23 10:33:21;;;;;;;26.55;18.20;;;5.20;99.90;;;;;;1908187;74;21075;-83
2022/01/23 10:36:04;;;;;;;27.70;17.70;;;5.30;99.90;;;;;;1907858;75;21048;-81
2022/01/23 10:38:50;;;;;;;25.37;16.95;;;5.20;99.90;;;;;;1909066;74;21054;-84
2022/01/23 10:50:00;;;;;;;24.23;16.77;;;5.30;99.90;;;;;;1908366;75;21506;-80
2022/01/23 10:52:34;;;;;;;29.70;17.15;;;5.20;99.90;;;;;;1886538;75;21149;-79
2022/01/23 10:55:06;;;;;;;28.55;18.02;;;5.10;99.90;;;;;;1885851;75;21039;-81
2022/01/23 10:57:40;;;;;;;27.27;16.55;;;5.00;99.90;;;;;;1908335;75;21230;-78
2022/01/23 11:00:13;;;;;;;27.17;16.73;;;5.00;99.90;;;;;;1908150;74;21071;-77
2022/01/23 11:02:42;;;;;;;26.62;15.72;;;5.10;99.90;;;;;;1905075;75;21452;-78
2022/01/23 11:05:16;;;;;;;25.15;15.58;;;5.30;99.90;;;;;;1908109;74;21132;-79
2022/01/23 11:07:44;;;;;;;24.75;15.58;;;5.20;99.90;;;;;;1906027;75;21162;-79
2022/01/23 11:10:16;;;;;;;23.70;14.63;;;5.40;99.90;;;;;;1907726;75;21039;-79
2022/01/23 11:17:21;;;;;;;25.55;15.13;;;5.50;99.90;;;;;;1908260;74;21141;-78
2022/01/23 11:18:03;;;;;;;20.05;14.28;;;5.30;99.90;;;;;;1908031;75;21071;-77
2022/01/23 11:20:33;;;;;;;21.75;14.68;;;5.30;99.90;;;;;;1908526;74;21466;-80
2022/01/23 11:23:24;;;;;;;18.27;14.55;;;5.30;99.90;;;;;;1903394;75;21105;-81
2022/01/23 11:26:01;;;;;;;20.88;13.83;;;5.30;99.90;;;;;;1907329;75;21047;-80
2022/01/23 11:28:40;;;;;;;25.20;15.75;;;5.60;99.90;;;;;;1907525;75;21055;-77
2022/01/23 11:31:10;;;;;;;28.90;16.85;;;5.60;99.90;;;;;;1835089;75;21104;-80
2022/01/23 11:33:38;;;;;;;25.65;16.57;;;5.50;99.90;;;;;;1880009;75;21059;-76
2022/01/23 11:36:05;;;;;;;24.07;16.20;;;5.60;99.90;;;;;;1885321;76;21023;-76
2022/01/23 11:38:33;;;;;;;24.02;16.73;;;5.70;99.90;;;;;;1879613;74;21077;-78
2022/01/23 11:54:55;;;;;;;22.27;14.55;;;5.70;99.90;;;;;;1868545;75;21495;-77
2022/01/23 11:57:40;;;;;;;25.40;15.70;;;5.70;99.90;;;;;;1878984;75;21071;-77
2022/01/23 12:00:11;;;;;;;21.68;15.50;;;5.90;99.90;;;;;;1878940;75;21156;-76
2022/01/23 12:02:44;;;;;;;19.25;14.28;;;5.90;99.90;;;;;;1882372;74;21580;-79
2022/01/23 12:05:19;;;;;;;19.13;13.13;;;6.00;99.90;;;;;;1878567;75;21078;-75
2022/01/23 12:08:04;;;;;;;20.82;13.95;;;5.90;99.90;;;;;;1880693;75;21404;-78
2022/01/23 12:10:52;;;;;;;20.23;14.10;;;6.10;99.90;;;;;;1854694;75;21229;-77
2022/01/23 12:13:55;;;;;;;23.10;14.00;;;5.90;99.90;;;;;;1875261;76;21498;-77
2022/01/23 12:18:50;;;;;;;19.77;12.82;;;6.10;99.90;;;;;;1846780;77;21595;-75
2022/01/23 12:21:30;;;;;;;24.77;13.45;;;6.00;99.90;;;;;;1809765;78;21502;-77
2022/01/23 12:24:03;;;;;;;21.00;12.63;;;6.10;99.90;;;;;;1841058;76;21163;-77
2022/01/23 12:26:30;;;;;;;19.30;13.00;;;6.20;99.90;;;;;;1844161;77;21082;-78
2022/01/23 12:29:16;;;;;;;17.50;11.88;;;6.20;99.90;;;;;;1847438;77;21144;-77
2022/01/23 12:31:41;;;;;;;20.70;13.98;;;6.30;99.90;;;;;;1812120;77;21042;-77
2022/01/23 12:34:08;;;;;;;19.57;12.68;;;6.30;99.90;;;;;;1864539;75;21047;-77
2022/01/23 12:36:37;;;;;;;20.12;12.18;;;6.40;99.90;;;;;;1881603;75;21127;-77
2022/01/23 12:42:04;;;;;;;18.20;11.90;;;6.30;99.90;;;;;;1755648;81;21230;-76
2022/01/23 12:44:39;;;;;;;19.95;13.25;;;5.90;99.90;;;;;;1753302;81;21090;-78
2022/01/23 12:47:21;;;;;;;25.30;12.40;;;5.90;99.90;;;;;;1754193;81;21152;-76
2022/01/23 12:49:52;;;;;;;17.87;12.18;;;6.10;99.90;;;;;;1753268;81;21521;-77
2022/01/23 12:52:21;;;;;;;15.55;11.33;;;6.30;99.90;;;;;;1825797;78;21077;-77
2022/01/23 12:54:57;;;;;;;16.20;11.80;;;6.60;99.90;;;;;;1826632;78;21064;-77
2022/01/23 12:57:39;;;;;;;15.70;11.63;;;6.50;99.90;;;;;;1826908;78;21057;-77
2022/01/23 13:00:10;;;;;;;23.32;12.00;;;6.70;99.90;;;;;;1826560;78;21188;-77
2022/01/23 13:02:45;;;;;;;18.90;12.60;;;6.90;99.90;;;;;;1826778;78;21131;-77
2022/01/23 13:05:06;;;;;;;17.98;12.63;;;6.80;99.90;;;;;;1825025;78;21153;-77
2022/01/23 13:07:43;;;;;;;22.65;12.55;;;6.70;99.90;;;;;;1826404;78;21042;-76
2022/01/23 13:18:31;;;;;;;10.68;7.00;;;6.60;99.90;;;;;;1826117;78;21426;-77
2022/01/23 13:32:36;;;;;;;8.05;4.75;;;6.60;99.90;;;;;;1826011;78;21141;-77
2022/01/23 13:35:04;;;;;;;2.85;2.58;;;6.50;99.90;;;;;;1820120;78;21163;-77
2022/01/23 13:37:26;;;;;;;2.90;2.10;;;6.50;99.90;;;;;;1823776;78;21160;-78
2022/01/23 13:40:05;;;;;;;4.80;1.90;;;6.50;99.90;;;;;;1826016;78;21061;-77
2022/01/23 13:42:47;;;;;;;1.72;1.60;;;6.60;99.90;;;;;;1824954;78;21088;-77
2022/01/23 13:59:29;;;;;;;2.10;1.70;;;6.40;99.90;;;;;;1825947;78;21179;-76
2022/01/23 14:02:18;;;;;;;2.25;1.90;;;6.60;99.90;;;;;;1825323;78;21541;-77
2022/01/23 14:04:27;;;;;;;2.27;2.02;;;6.60;99.90;;;;;;1820838;78;21094;-76
2022/01/23 14:06:58;;;;;;;3.60;2.10;;;6.60;99.90;;;;;;1793828;78;21497;-81
2022/01/23 14:09:26;;;;;;;2.27;2.08;;;6.50;99.90;;;;;;1825942;78;21079;-74
2022/01/23 14:11:54;;;;;;;3.05;2.30;;;6.50;99.90;;;;;;1825987;78;21074;-75
2022/01/23 14:14:23;;;;;;;2.90;2.40;;;6.50;99.90;;;;;;1825827;78;21128;-74
2022/01/23 14:16:52;;;;;;;4.30;2.90;;;6.40;99.90;;;;;;1825789;78;21089;-77
2022/01/23 14:19:23;;;;;;;4.83;3.92;;;6.40;99.90;;;;;;1825841;78;21105;-69
2022/01/23 14:21:53;;;;;;;10.95;3.92;;;6.30;99.90;;;;;;1826069;77;21070;-70
2022/01/23 14:24:27;;;;;;;4.83;4.10;;;6.30;99.90;;;;;;1825585;77;21057;-73
2022/01/23 14:27:09;;;;;;;8.03;4.40;;;6.20;99.90;;;;;;1825839;78;21430;-69
2022/01/23 14:29:53;;;;;;;4.25;3.52;;;6.20;99.90;;;;;;1825882;78;21442;-70
2022/01/23 14:32:35;;;;;;;4.70;3.90;;;6.20;99.90;;;;;;1825840;78;21049;-73
2022/01/23 14:35:06;;;;;;;5.28;3.87;;;6.20;99.90;;;;;;1824736;78;21135;-72
2022/01/23 14:37:33;;;;;;;5.37;4.00;;;6.30;99.90;;;;;;1825941;78;21057;-74
2022/01/23 14:40:24;;;;;;;3.90;3.52;;;6.20;99.90;;;;;;1825869;78;21477;-72
2022/01/23 14:43:11;;;;;;;3.87;3.47;;;6.40;99.90;;;;;;1826009;78;21105;-73
2022/01/23 14:45:43;;;;;;;5.92;3.80;;;6.40;99.90;;;;;;1825844;78;21123;-73
2022/01/23 14:48:11;;;;;;;6.15;3.80;;;6.30;99.90;;;;;;1825834;78;21046;-75
2022/01/23 14:50:41;;;;;;;7.80;3.62;;;6.20;99.90;;;;;;1825828;78;21074;-70
2022/01/23 14:53:12;;;;;;;4.40;4.00;;;6.20;99.90;;;;;;1825891;78;21115;-73
2022/01/23 14:55:43;;;;;;;7.28;4.70;;;6.10;99.90;;;;;;1825889;78;21123;-73
2022/01/23 14:58:12;;;;;;;7.17;4.50;;;6.00;99.90;;;;;;1825465;78;21473;-79
2022/01/23 15:00:39;;;;;;;9.05;3.27;;;6.00;99.90;;;;;;1825884;78;21085;-75
2022/01/23 15:03:07;;;;;;;6.42;4.05;;;5.90;99.90;;;;;;1825751;78;21563;-76
2022/01/23 15:05:36;;;;;;;5.40;3.95;;;5.80;99.90;;;;;;1825802;78;21111;-75
2022/01/23 15:08:08;;;;;;;11.78;3.95;;;5.80;99.90;;;;;;1825771;78;21116;-78
2022/01/23 15:10:41;;;;;;;6.42;3.77;;;5.70;99.90;;;;;;1825979;78;21147;-77
2022/01/23 15:13:08;;;;;;;5.97;3.70;;;5.80;99.90;;;;;;1825913;78;21158;-77
2022/01/23 15:15:35;;;;;;;7.22;4.03;;;5.80;99.90;;;;;;1825942;78;21530;-77
2022/01/23 15:18:03;;;;;;;5.55;3.85;;;5.70;99.90;;;;;;1826002;78;21158;-77
2022/01/23 15:20:33;;;;;;;5.25;3.80;;;5.70;99.90;;;;;;1826067;77;21077;-75
2022/01/23 15:23:00;;;;;;;4.12;3.45;;;5.70;99.90;;;;;;1825714;77;21097;-75
2022/01/23 15:25:27;;;;;;;5.20;3.80;;;5.70;99.90;;;;;;1822263;77;21090;-76
2022/01/23 15:27:54;;;;;;;7.47;4.20;;;5.60;99.90;;;;;;1816923;77;21180;-76
2022/01/23 15:30:23;;;;;;;4.20;3.45;;;5.50;99.90;;;;;;1821362;78;21497;-73
2022/01/23 15:32:51;;;;;;;6.03;3.60;;;5.50;99.90;;;;;;1821989;78;21155;-76
2022/01/23 15:35:19;;;;;;;4.33;3.70;;;5.60;99.90;;;;;;1815139;79;21074;-75
2022/01/23 15:37:46;;;;;;;5.67;3.52;;;5.70;99.90;;;;;;1820333;78;21174;-76
2022/01/23 15:40:15;;;;;;;4.97;3.77;;;5.60;99.90;;;;;;1820200;77;21144;-75
2022/01/23 15:42:45;;;;;;;4.87;3.37;;;5.60;99.90;;;;;;1821167;78;21175;-80
2022/01/23 15:45:13;;;;;;;5.65;3.22;;;5.60;99.90;;;;;;1822051;78;21269;-80
2022/01/23 15:47:40;;;;;;;5.80;3.60;;;5.50;99.90;;;;;;1818317;78;21156;-80
2022/01/23 15:50:08;;;;;;;3.65;2.98;;;5.40;99.90;;;;;;1820289;79;21473;-81
2022/01/23 15:52:35;;;;;;;3.22;2.77;;;5.40;99.90;;;;;;1820095;78;21168;-84
2022/01/23 15:55:02;;;;;;;4.22;2.52;;;5.30;99.90;;;;;;1822107;78;21097;-83
2022/01/23 15:57:30;;;;;;;3.60;2.55;;;5.30;99.90;;;;;;1820406;78;21101;-82
2022/01/23 15:59:57;;;;;;;4.40;2.20;;;5.30;99.90;;;;;;1817023;78;21560;-79
2022/01/23 16:02:25;;;;;;;2.62;2.40;;;5.40;99.90;;;;;;1821019;78;21113;-81
2022/01/23 16:04:52;;;;;;;4.25;3.00;;;5.30;99.90;;;;;;1822647;77;21106;-80
2022/01/23 16:07:19;;;;;;;4.00;3.15;;;5.40;99.90;;;;;;1821718;78;21187;-79
2022/01/23 16:09:47;;;;;;;4.83;3.37;;;5.30;99.90;;;;;;1820291;79;21160;-81
2022/01/23 16:12:14;;;;;;;2.75;2.55;;;5.20;99.90;;;;;;1819255;79;21153;-82
2022/01/23 16:14:42;;;;;;;8.25;3.67;;;5.30;99.90;;;;;;1818318;78;21167;-78
2022/01/23 16:17:09;;;;;;;3.45;2.77;;;5.20;99.90;;;;;;1820235;78;21089;-78
2022/01/23 16:19:37;;;;;;;3.80;3.45;;;5.30;99.90;;;;;;1818819;79;21097;-79